Huron Regional Airport
KHON : now visible

Airfield :











YOU CAN JOIN US ON...

 
LOGIN :

Register | Disclaimer

   EN    FR    IT 

 









Legend :    VFR   Marginal VFR   IFR   Intensive IFR   Very Intensive IFR
Visi :
Ceiling :
>= 8 km
>= 3000ft
5 to 8 km
1000 to 3000 ft
1500m to 5 km
500 to 1000 ft
800 to 1500m
200 to 500 ft
< 800m
< 200 ft
Symbols :   Thunderstorms  Fog  Heavy snow  Heavy precipitations  Wind > 20 kt






- Airport Elevation : 1289 ft
- IATA code : HON


KHON - Huron Regional

CURRENT METAR :
  • 052255Z AUTO 16009KT 10SM CLR M01/M04 A3000 RMK AO2 SLP178 T10111044

EXPIRED METARs :
  • 052155Z AUTO 16008KT 10SM CLR M01/M04 A3001 RMK AO2 SLP179 T10111039
  • 052138Z AUTO 13007KT 10SM SCT008 M01/M04 A3001 RMK AO2 T10111039

TAF KHON
Valid from the 06 at 00:00 until the 07 at 00:00 UTC


052328Z 0600/0624 15008KT P6SM FEW005 SCT200
FM060600 15016G25KT P6SM BKN200 WS020/19055KT
FM061100 15024G37KT P6SM BKN200 WS020/19055KT
FM061400 18016G27KT P6SM BKN150
FM062000 28017G29KT P6SM SCT025 BKN040
KZMP FIR / North America



MET'MAP, your aeronautical weather chart ! - Copyright ORBIFLY December 2007 - Disclaimer

ORBIFLY MET'MAP TEAM :

Programming & Development : Alexandra Zaïnal
Original concept : Baudouin d'Aumeries
Technical & hardware support : Manuel Goepfert
Assistance : Marc-Olivier Méhu




SOURCES & CREDITS :

   NOAA       Earth
Advisory